createdAt,value
2019-03-02T00:08:28.169Z,0.50
2019-03-02T00:10:57.761Z,0.60
2019-03-02T00:13:27.431Z,0.60
2019-03-02T00:15:57.351Z,0.60
2019-03-02T00:18:29.121Z,0.70
2019-03-02T00:20:58.256Z,0.70
2019-03-02T00:23:27.900Z,0.70
2019-03-02T00:25:57.503Z,0.70
2019-03-02T00:28:27.274Z,0.80
2019-03-02T00:30:57.798Z,0.80
2019-03-02T00:33:29.045Z,0.80
2019-03-02T00:35:58.770Z,0.90
2019-03-02T00:38:28.444Z,0.80
2019-03-02T00:40:58.084Z,0.90
2019-03-02T00:43:28.043Z,0.90
2019-03-02T00:45:57.799Z,0.90
2019-03-02T00:48:27.565Z,1.00
2019-03-02T00:50:57.155Z,1.00
2019-03-02T00:53:26.822Z,1.00
2019-03-02T00:55:56.541Z,1.00
2019-03-02T00:58:29.008Z,1.00
2019-03-02T01:00:57.566Z,1.00
2019-03-02T01:03:27.171Z,1.00
2019-03-02T01:05:56.907Z,1.00
2019-03-02T01:08:26.588Z,1.10
2019-03-02T01:10:58.213Z,1.10
2019-03-02T01:13:27.532Z,1.10
2019-03-02T01:15:57.184Z,1.10
2019-03-02T01:18:26.859Z,1.10
2019-03-02T01:20:56.441Z,1.10
2019-03-02T01:23:27.525Z,1.20
2019-03-02T01:25:57.371Z,1.20
2019-03-02T01:28:27.034Z,1.20
2019-03-02T01:30:56.681Z,1.30
2019-03-02T01:33:28.550Z,1.30
2019-03-02T01:35:57.779Z,1.30
2019-03-02T01:38:27.505Z,1.30
2019-03-02T01:40:57.146Z,1.40
2019-03-02T01:43:26.800Z,1.40
2019-03-02T01:45:59.662Z,1.40
2019-03-02T01:48:27.937Z,1.40
2019-03-02T01:50:57.709Z,1.40
2019-03-02T01:53:27.350Z,1.40
2019-03-02T01:55:57.024Z,1.50
2019-03-02T01:58:28.052Z,1.50
2019-03-02T02:00:58.154Z,1.50
2019-03-02T02:03:27.795Z,1.50
2019-03-02T02:05:57.391Z,1.50
2019-03-02T02:08:29.861Z,1.50
2019-03-02T02:11:01.692Z,1.50
2019-03-02T02:13:31.360Z,1.50
2019-03-02T02:16:01.633Z,1.50
2019-03-02T02:18:32.255Z,1.50
2019-03-02T02:21:01.884Z,1.50
2019-03-02T02:23:31.532Z,1.40
2019-03-02T02:26:01.138Z,1.40
2019-03-02T02:28:32.343Z,1.40
2019-03-02T02:31:06.098Z,1.40
2019-03-02T02:33:33.377Z,1.40
2019-03-02T02:36:02.981Z,1.40
2019-03-02T02:38:32.692Z,1.40
2019-03-02T02:41:02.288Z,1.40
2019-03-02T02:43:31.931Z,1.40
2019-03-02T02:46:01.603Z,1.40
2019-03-02T02:48:32.743Z,1.40
2019-03-02T02:51:04.451Z,1.40
2019-03-02T02:53:33.890Z,1.40
2019-03-02T02:56:03.507Z,1.40
2019-03-02T02:58:33.202Z,1.40
2019-03-02T03:01:02.863Z,1.40
2019-03-02T03:03:32.469Z,1.40
2019-03-02T03:06:02.182Z,1.40
2019-03-02T03:08:40.888Z,1.40
2019-03-02T03:11:11.203Z,1.40
2019-03-02T03:13:42.058Z,1.50
2019-03-02T03:16:16.511Z,1.50
2019-03-02T03:18:46.973Z,1.40
2019-03-02T03:21:15.422Z,1.40
2019-03-02T03:23:45.094Z,1.50
2019-03-02T03:26:14.732Z,1.50
2019-03-02T03:28:44.335Z,1.40
2019-03-02T03:31:21.997Z,1.40
2019-03-02T03:33:47.200Z,1.50
2019-03-02T03:36:16.539Z,1.40
2019-03-02T03:38:46.135Z,1.40
2019-03-02T03:41:15.799Z,1.40
2019-03-02T03:43:45.441Z,1.40
2019-03-02T03:46:17.899Z,1.50
2019-03-02T03:48:51.439Z,1.50
2019-03-02T03:51:17.724Z,1.40
2019-03-02T03:53:47.339Z,1.40
2019-03-02T03:56:17.086Z,1.50
2019-03-02T03:58:46.793Z,1.50
2019-03-02T04:01:17.711Z,1.50
2019-03-02T04:03:51.712Z,1.50
2019-03-02T04:06:23.400Z,1.50
2019-03-02T04:08:50.410Z,1.40
2019-03-02T04:11:20.081Z,1.50
2019-03-02T04:13:49.764Z,1.50
2019-03-02T04:16:20.632Z,1.50
2019-03-02T04:18:57.777Z,1.50
2019-03-02T04:21:29.807Z,1.50
2019-03-02T04:24:01.459Z,1.50
2019-03-02T04:26:31.477Z,1.50
2019-03-02T04:29:09.036Z,1.50
2019-03-02T04:31:33.465Z,1.50
2019-03-02T04:34:03.049Z,1.50
2019-03-02T04:36:32.723Z,1.50
2019-03-02T04:39:02.338Z,1.50
2019-03-02T04:41:35.603Z,1.50
2019-03-02T04:44:04.190Z,1.50
2019-03-02T04:46:33.847Z,1.50
2019-03-02T04:49:03.499Z,1.50
2019-03-02T04:51:35.135Z,1.50
2019-03-02T04:54:04.408Z,1.50
2019-03-02T04:56:34.050Z,1.50
2019-03-02T04:59:03.650Z,1.50
2019-03-02T05:01:33.327Z,1.50
2019-03-02T05:04:02.985Z,1.50
2019-03-02T05:06:32.700Z,1.50
2019-03-02T05:09:02.354Z,1.60
2019-03-02T05:11:31.961Z,1.50
2019-03-02T05:14:04.262Z,1.60
2019-03-02T05:16:32.848Z,1.60
2019-03-02T05:19:02.512Z,1.60
2019-03-02T05:21:32.144Z,1.60
2019-03-02T05:24:03.419Z,1.60
2019-03-02T05:26:33.065Z,1.60
2019-03-02T05:29:02.745Z,1.60
2019-03-02T05:31:32.362Z,1.60
2019-03-02T05:34:04.600Z,1.60
2019-03-02T05:36:33.353Z,1.60
2019-03-02T05:39:03.384Z,1.60
2019-03-02T05:41:35.738Z,1.60
2019-03-02T05:44:05.496Z,1.60
2019-03-02T05:46:35.119Z,1.60
2019-03-02T05:49:04.787Z,1.60
2019-03-02T05:51:34.512Z,1.60
2019-03-02T05:54:06.462Z,1.60
2019-03-02T05:56:35.428Z,1.70
2019-03-02T05:59:05.031Z,1.70
2019-03-02T06:01:36.663Z,1.70
2019-03-02T06:04:06.018Z,1.70
2019-03-02T06:06:35.623Z,1.70
2019-03-02T06:09:13.870Z,1.80
2019-03-02T06:11:41.456Z,1.80
2019-03-02T06:14:11.113Z,1.80
2019-03-02T06:16:40.716Z,1.80
2019-03-02T06:19:10.356Z,1.80
2019-03-02T06:21:42.879Z,1.90
2019-03-02T06:24:11.302Z,1.90
2019-03-02T06:26:40.909Z,1.90
2019-03-02T06:29:10.600Z,1.90
2019-03-02T06:31:40.243Z,1.90
2019-03-02T06:34:09.904Z,2.00
2019-03-02T06:36:41.073Z,2.00
2019-03-02T06:39:10.840Z,2.00
2019-03-02T06:41:40.448Z,2.10
2019-03-02T06:44:10.107Z,2.10
2019-03-02T06:46:39.751Z,2.10
2019-03-02T06:49:09.398Z,2.20
2019-03-02T06:51:39.055Z,2.20
2019-03-02T06:54:08.957Z,2.20
2019-03-02T06:56:40.057Z,2.30
2019-03-02T06:59:09.679Z,2.30
2019-03-02T07:01:39.575Z,2.40
2019-03-02T07:04:10.751Z,2.40
2019-03-02T07:06:43.511Z,2.50
2019-03-02T07:09:11.910Z,2.50
2019-03-02T07:11:41.657Z,2.60
2019-03-02T07:14:11.389Z,2.60
2019-03-02T07:16:40.992Z,2.60
2019-03-02T07:19:42.261Z,2.70
2019-03-02T07:22:13.547Z,2.70
2019-03-02T07:24:43.306Z,2.80
2019-03-02T07:27:12.923Z,2.80
2019-03-02T07:29:42.624Z,2.90
2019-03-02T07:32:12.196Z,2.90
2019-03-02T07:34:43.671Z,3.00
2019-03-02T07:37:13.150Z,3.00
2019-03-02T07:39:42.867Z,3.10
2019-03-02T07:42:12.674Z,3.10
2019-03-02T07:44:42.292Z,3.10
2019-03-02T07:47:12.478Z,3.20
2019-03-02T07:49:42.149Z,3.20
2019-03-02T07:52:13.784Z,3.30
2019-03-02T07:54:43.359Z,3.40
2019-03-02T07:57:13.424Z,3.50
2019-03-02T07:59:43.124Z,3.50
2019-03-02T08:02:12.792Z,3.60
2019-03-02T08:04:42.618Z,3.70
2019-03-02T08:07:12.277Z,3.70
2019-03-02T08:09:41.946Z,3.80
2019-03-02T08:12:11.648Z,3.80
2019-03-02T08:14:44.465Z,3.90
2019-03-02T08:17:13.443Z,3.90
2019-03-02T08:19:44.787Z,3.90
2019-03-02T08:22:14.615Z,3.90
2019-03-02T08:24:44.734Z,3.90
2019-03-02T08:27:14.521Z,3.90
2019-03-02T08:29:44.175Z,4.00
2019-03-02T08:32:13.784Z,4.00
2019-03-02T08:34:46.389Z,4.00
2019-03-02T08:37:16.532Z,4.10
2019-03-02T08:39:46.813Z,4.10
2019-03-02T08:42:17.664Z,4.10
2019-03-02T08:44:47.280Z,4.10
2019-03-02T08:47:17.079Z,4.10
2019-03-02T08:49:46.772Z,4.10
2019-03-02T08:52:16.435Z,4.20
2019-03-02T08:54:46.055Z,4.20
2019-03-02T08:57:15.717Z,4.30
2019-03-02T08:59:45.702Z,4.30
2019-03-02T09:02:15.539Z,4.30
2019-03-02T09:04:47.221Z,4.40
2019-03-02T09:07:16.788Z,4.40
2019-03-02T09:09:46.578Z,4.40
2019-03-02T09:12:17.854Z,4.50
2019-03-02T09:14:49.079Z,4.50
2019-03-02T09:17:18.980Z,4.50
2019-03-02T09:19:48.664Z,4.50
2019-03-02T09:22:20.867Z,4.50
2019-03-02T09:24:50.006Z,4.50
2019-03-02T09:27:20.394Z,4.60
2019-03-02T09:29:51.423Z,4.70
2019-03-02T09:32:21.326Z,4.70
2019-03-02T09:34:53.047Z,4.80
2019-03-02T09:37:22.410Z,4.90
2019-03-02T09:39:56.496Z,4.90
2019-03-02T09:42:40.406Z,4.90
2019-03-02T09:45:12.939Z,4.90
2019-03-02T09:47:47.893Z,4.90
2019-03-02T09:50:21.687Z,4.90
2019-03-02T09:53:03.737Z,5.00
2019-03-02T09:55:46.253Z,5.00
2019-03-02T09:58:44.235Z,5.00
2019-03-02T10:01:13.916Z,5.00
2019-03-02T10:03:48.344Z,5.00
2019-03-02T10:06:21.831Z,5.10
2019-03-02T10:08:57.862Z,5.10
2019-03-02T10:11:27.678Z,5.20
2019-03-02T10:14:13.386Z,5.20
2019-03-02T10:16:43.319Z,5.30
2019-03-02T10:19:12.980Z,5.40
2019-03-02T10:21:43.647Z,5.50
2019-03-02T10:24:17.004Z,5.60
2019-03-02T10:26:45.085Z,5.70
2019-03-02T10:29:14.689Z,5.80
2019-03-02T10:31:44.852Z,5.90
2019-03-02T10:34:14.591Z,6.00
2019-03-02T10:36:44.303Z,6.10
2019-03-02T10:39:14.555Z,6.20
2019-03-02T10:41:44.192Z,6.20
2019-03-02T10:44:17.734Z,6.30
2019-03-02T10:46:47.617Z,6.30
2019-03-02T10:49:17.393Z,6.40
2019-03-02T10:51:47.282Z,6.50
2019-03-02T10:54:24.362Z,6.60
2019-03-02T10:56:56.640Z,6.60
2019-03-02T10:59:27.275Z,6.70
2019-03-02T11:01:58.010Z,6.70
2019-03-02T11:04:44.490Z,6.80
2019-03-02T11:07:39.426Z,6.90
2019-03-02T11:10:23.403Z,6.90
2019-03-02T11:13:18.872Z,6.90
2019-03-02T11:16:08.525Z,6.90
2019-03-02T11:19:11.436Z,6.90
2019-03-02T11:22:02.515Z,6.90
2019-03-02T11:25:06.556Z,6.80
2019-03-02T11:28:02.445Z,6.70
2019-03-02T11:31:10.605Z,6.50
2019-03-02T11:34:03.766Z,6.40
2019-03-02T11:37:00.996Z,6.30
2019-03-02T11:40:13.054Z,6.30
2019-03-02T11:43:05.204Z,6.30
2019-03-02T11:46:04.573Z,6.20
2019-03-02T11:49:00.346Z,6.20
2019-03-02T11:52:05.573Z,6.10
2019-03-02T11:54:54.763Z,6.10
2019-03-02T11:57:41.895Z,6.10
2019-03-02T12:00:46.947Z,6.10
2019-03-02T12:03:46.997Z,6.20
2019-03-02T12:06:53.962Z,6.10
2019-03-02T12:09:45.615Z,6.10
2019-03-02T12:12:35.347Z,6.10
2019-03-02T12:15:27.226Z,6.20
2019-03-02T12:18:16.391Z,6.20
2019-03-02T12:20:54.458Z,6.30
2019-03-02T12:23:46.768Z,6.40
2019-03-02T12:26:33.983Z,6.50
2019-03-02T12:29:22.771Z,6.60
2019-03-02T12:31:59.952Z,6.60
2019-03-02T12:34:41.475Z,6.70
2019-03-02T12:37:42.463Z,6.70
2019-03-02T12:40:31.033Z,6.70
2019-03-02T12:43:11.026Z,6.70
2019-03-02T12:45:57.466Z,6.60
2019-03-02T12:48:49.334Z,6.60
2019-03-02T12:51:59.284Z,6.50
2019-03-02T12:54:59.381Z,6.50
2019-03-02T12:57:45.097Z,6.40
2019-03-02T13:00:41.355Z,6.40
2019-03-02T13:03:48.736Z,6.40
2019-03-02T13:06:37.499Z,6.30
2019-03-02T13:09:36.768Z,6.30
2019-03-02T13:12:19.858Z,6.30
2019-03-02T13:15:12.515Z,6.40
2019-03-02T13:18:13.901Z,6.50
2019-03-02T13:20:53.533Z,6.60
2019-03-02T14:13:31.980Z,7.10
2019-03-02T14:16:22.693Z,7.10
2019-03-02T14:19:02.243Z,7.10
2019-03-02T14:22:11.373Z,7.10
2019-03-02T14:25:19.058Z,7.10
2019-03-02T14:28:19.316Z,7.10
2019-03-02T14:31:19.853Z,7.10
2019-03-02T14:33:53.851Z,7.00
2019-03-02T14:36:47.865Z,7.00
2019-03-02T14:39:56.345Z,7.00
2019-03-02T14:42:53.358Z,7.00
2019-03-02T14:45:34.382Z,7.00
2019-03-02T14:49:01.125Z,7.00
2019-03-02T14:52:06.368Z,7.00
2019-03-02T14:54:46.203Z,7.10
2019-03-02T14:57:27.420Z,7.10
2019-03-02T15:00:16.570Z,7.10
2019-03-02T15:03:11.915Z,7.00
2019-03-02T15:06:25.806Z,6.90
2019-03-02T15:09:08.921Z,6.80
2019-03-02T15:11:58.575Z,6.70
2019-03-02T15:14:47.123Z,6.70
2019-03-02T15:17:49.222Z,6.70
2019-03-02T15:20:39.003Z,6.70
2019-03-02T15:23:39.950Z,6.60
2019-03-02T15:26:43.182Z,6.60
2019-03-02T15:29:26.456Z,6.60
2019-03-02T15:32:22.111Z,6.50
2019-03-02T15:35:18.461Z,6.50
2019-03-02T15:38:09.557Z,6.50
2019-03-02T15:41:05.201Z,6.40
2019-03-02T15:44:07.092Z,6.30
2019-03-02T15:47:13.855Z,6.30
2019-03-02T15:50:04.979Z,6.20
2019-03-02T15:53:16.177Z,6.10
2019-03-02T15:56:07.655Z,6.10
2019-03-02T15:58:47.934Z,6.00
2019-03-02T16:01:53.008Z,5.90
2019-03-02T16:04:46.430Z,5.80
2019-03-02T16:07:25.604Z,5.80
2019-03-02T16:10:14.937Z,5.70
2019-03-02T16:13:08.937Z,5.60
2019-03-02T16:16:04.281Z,5.60
2019-03-02T16:18:55.467Z,5.50
2019-03-02T16:21:42.725Z,5.40
2019-03-02T16:24:50.393Z,5.40
2019-03-02T16:28:02.823Z,5.30
2019-03-02T16:30:39.308Z,5.20
2019-03-02T16:33:31.110Z,5.20
2019-03-02T16:36:23.825Z,5.10
2019-03-02T16:39:33.040Z,5.00
2019-03-02T16:42:28.615Z,5.00
2019-03-02T16:45:24.300Z,4.90
2019-03-02T16:48:25.027Z,4.80
2019-03-02T16:51:17.090Z,4.80
2019-03-02T16:54:04.839Z,4.70
2019-03-02T16:56:53.972Z,4.60
2019-03-02T16:59:47.967Z,4.60
2019-03-02T17:02:39.699Z,4.50
2019-03-02T17:05:31.885Z,4.50
2019-03-02T17:08:12.404Z,4.40
2019-03-02T17:11:16.414Z,4.40
2019-03-02T17:14:09.160Z,4.30
2019-03-02T17:17:11.954Z,4.30
2019-03-02T17:20:01.218Z,4.30
2019-03-02T17:22:53.749Z,4.20
2019-03-02T17:25:51.724Z,4.20
2019-03-02T17:28:52.259Z,4.20
2019-03-02T17:31:45.027Z,4.10
2019-03-02T17:34:33.791Z,4.10
2019-03-02T17:37:38.426Z,4.10
2019-03-02T17:40:34.476Z,4.10
2019-03-02T17:43:40.444Z,4.00
2019-03-02T17:46:18.172Z,4.00
2019-03-02T17:49:28.770Z,4.00
2019-03-02T17:52:09.356Z,4.00
2019-03-02T17:55:02.670Z,4.00
2019-03-02T17:58:01.836Z,3.90
2019-03-02T18:01:05.431Z,3.90
2019-03-02T18:04:20.483Z,3.90
2019-03-02T18:06:59.417Z,3.80
2019-03-02T18:09:57.129Z,3.60
2019-03-02T18:12:39.686Z,3.50
2019-03-02T18:15:32.088Z,3.30
2019-03-02T18:18:03.371Z,3.10
2019-03-02T18:20:56.211Z,2.90
2019-03-02T18:41:12.200Z,1.90
2019-03-02T18:43:44.825Z,1.80
2019-03-02T18:46:16.436Z,1.70
2019-03-02T18:49:17.257Z,1.70
2019-03-02T18:52:03.568Z,1.60
2019-03-02T18:54:34.346Z,1.60
2019-03-02T18:57:04.214Z,1.50
2019-03-02T18:59:33.865Z,1.50
2019-03-02T19:02:05.406Z,1.40
2019-03-02T19:04:37.236Z,1.40
2019-03-02T19:07:06.477Z,1.40
2019-03-02T19:09:36.464Z,1.30
2019-03-02T19:12:06.203Z,1.30
2019-03-02T19:14:37.458Z,1.20
2019-03-02T19:17:07.473Z,1.20
2019-03-02T19:19:37.252Z,1.20
2019-03-02T19:22:07.131Z,1.10
2019-03-02T19:24:36.958Z,1.10
2019-03-02T19:27:06.666Z,1.10
2019-03-02T19:29:36.388Z,1.00
2019-03-02T19:32:06.100Z,1.00
2019-03-02T19:34:35.899Z,0.90
2019-03-02T19:37:05.544Z,0.90
2019-03-02T19:39:35.530Z,0.80
2019-03-02T19:42:05.248Z,0.80
2019-03-02T19:44:35.185Z,0.70
2019-03-02T19:47:05.399Z,0.70
2019-03-02T19:49:35.155Z,0.70
2019-03-02T19:52:04.853Z,0.70
2019-03-02T19:54:34.650Z,0.60
2019-03-02T19:57:04.508Z,0.60
2019-03-02T19:59:34.438Z,0.50
2019-03-02T20:02:04.230Z,0.50
2019-03-02T20:04:34.484Z,0.40
2019-03-02T20:07:04.316Z,0.40
2019-03-02T20:09:35.377Z,0.40
2019-03-02T20:12:05.435Z,0.40
2019-03-02T20:14:35.131Z,0.40
2019-03-02T20:17:05.006Z,0.40
2019-03-02T20:19:34.758Z,0.30
2019-03-02T20:22:04.536Z,0.40
2019-03-02T20:24:34.279Z,0.40
2019-03-02T20:27:04.008Z,0.50
2019-03-02T20:29:33.715Z,0.50
2019-03-02T20:32:03.498Z,0.70
2019-03-02T20:34:33.237Z,0.70
2019-03-02T20:37:05.830Z,0.80
2019-03-02T20:39:35.813Z,0.90
2019-03-02T20:42:05.609Z,0.90
2019-03-02T20:44:35.332Z,1.00
2019-03-02T20:47:05.344Z,1.10
2019-03-02T20:49:39.376Z,1.20
2019-03-02T20:52:09.071Z,1.30
2019-03-02T20:54:38.823Z,1.30
2019-03-02T20:57:08.479Z,1.40
2019-03-02T20:59:38.469Z,1.40
2019-03-02T21:02:08.450Z,1.50
2019-03-02T21:04:38.478Z,1.60
2019-03-02T21:07:08.134Z,1.70
2019-03-02T21:09:38.156Z,1.80
2019-03-02T21:12:10.219Z,1.80
2019-03-02T21:14:39.847Z,1.90
2019-03-02T21:17:09.520Z,2.00
2019-03-02T21:19:39.158Z,2.10
2019-03-02T21:22:09.046Z,2.10
2019-03-02T21:24:38.814Z,2.20
2019-03-02T21:27:10.431Z,2.20
2019-03-02T21:29:39.823Z,2.30
2019-03-02T21:32:09.592Z,2.40
2019-03-02T21:34:39.321Z,2.40
2019-03-02T21:37:08.974Z,2.40
2019-03-02T21:39:38.675Z,2.50
2019-03-02T21:42:08.411Z,2.60
2019-03-02T21:44:38.069Z,2.60
2019-03-02T21:47:07.787Z,2.60
2019-03-02T21:49:37.454Z,2.70
2019-03-02T21:52:07.152Z,2.70
2019-03-02T21:54:36.831Z,2.70
2019-03-02T21:57:06.460Z,2.70
2019-03-02T21:59:36.170Z,2.80
2019-03-02T22:02:05.859Z,2.80
2019-03-02T22:04:35.697Z,2.80
2019-03-02T22:07:05.303Z,2.90
2019-03-02T22:09:35.041Z,3.00
2019-03-02T22:12:04.654Z,3.00
2019-03-02T22:14:34.271Z,3.00
2019-03-02T22:17:04.948Z,2.90
2019-03-02T22:19:34.549Z,2.70
2019-03-02T22:22:04.201Z,2.60
2019-03-02T22:24:33.814Z,2.40
2019-03-02T22:27:03.486Z,2.20
2019-03-02T22:29:33.142Z,2.10
2019-03-02T22:32:02.799Z,2.00
2019-03-02T22:34:32.443Z,1.90
2019-03-02T22:37:02.047Z,1.80
2019-03-02T22:39:31.717Z,1.70
2019-03-02T22:42:01.364Z,1.60
2019-03-02T22:44:31.048Z,1.50
2019-03-02T22:47:00.711Z,1.40
2019-03-02T22:49:30.355Z,1.40
2019-03-02T22:51:59.996Z,1.30
2019-03-02T22:54:29.721Z,1.40
2019-03-02T22:56:59.330Z,1.50
2019-03-02T22:59:28.988Z,1.60
2019-03-02T23:02:22.318Z,1.70
2019-03-02T23:04:52.005Z,1.80
2019-03-02T23:07:21.636Z,1.90
2019-03-02T23:09:51.426Z,1.90
2019-03-02T23:12:21.100Z,2.00
2019-03-02T23:14:50.839Z,2.00
2019-03-02T23:17:20.496Z,2.10
2019-03-02T23:19:50.180Z,2.20
2019-03-02T23:22:19.883Z,2.30
2019-03-02T23:24:49.583Z,2.50
2019-03-02T23:27:19.285Z,2.60
2019-03-02T23:29:48.891Z,2.70
2019-03-02T23:32:18.592Z,2.80
2019-03-02T23:34:48.219Z,2.90
2019-03-02T23:37:18.447Z,3.00
2019-03-02T23:39:48.104Z,3.10
2019-03-02T23:42:19.140Z,3.20
2019-03-02T23:44:48.840Z,3.30
2019-03-02T23:47:18.541Z,3.40
2019-03-02T23:49:48.216Z,3.50
2019-03-02T23:52:17.887Z,3.50
2019-03-02T23:54:47.574Z,3.60
2019-03-02T23:57:17.187Z,3.70
2019-03-02T23:59:46.852Z,3.80
